sensor_id;sensor_type;location;lat;lon;timestamp;pressure;altitude;pressure_sealevel;temperature;humidity
69127;BME280;56688;50.234;19.292;2023-08-12T00:00:21;99108.31;;;13.62;80.47
69127;BME280;56688;50.234;19.292;2023-08-12T00:02:48;99111.58;;;13.62;80.73
69127;BME280;56688;50.234;19.292;2023-08-12T00:05:15;99110.95;;;13.61;80.82
69127;BME280;56688;50.234;19.292;2023-08-12T00:07:42;99114.50;;;13.60;80.60
69127;BME280;56688;50.234;19.292;2023-08-12T00:10:10;99117.31;;;13.56;80.15
69127;BME280;56688;50.234;19.292;2023-08-12T00:12:38;99114.52;;;13.50;79.65
69127;BME280;56688;50.234;19.292;2023-08-12T00:15:06;99116.55;;;13.43;79.68
69127;BME280;56688;50.234;19.292;2023-08-12T00:17:35;99117.31;;;13.35;79.83
69127;BME280;56688;50.234;19.292;2023-08-12T00:20:05;99116.43;;;13.31;79.63
69127;BME280;56688;50.234;19.292;2023-08-12T00:22:33;99114.44;;;13.26;79.73
69127;BME280;56688;50.234;19.292;2023-08-12T00:25:00;99117.83;;;13.22;79.77
69127;BME280;56688;50.234;19.292;2023-08-12T00:27:27;99115.98;;;13.18;79.85
69127;BME280;56688;50.234;19.292;2023-08-12T00:29:54;99115.72;;;13.13;79.57
69127;BME280;56688;50.234;19.292;2023-08-12T00:32:21;99113.14;;;13.08;79.55
69127;BME280;56688;50.234;19.292;2023-08-12T00:34:48;99111.73;;;13.00;79.36
69127;BME280;56688;50.234;19.292;2023-08-12T00:37:15;99113.48;;;12.95;79.75
69127;BME280;56688;50.234;19.292;2023-08-12T00:39:42;99114.39;;;12.91;80.00
69127;BME280;56688;50.234;19.292;2023-08-12T00:42:09;99111.37;;;12.89;79.79
69127;BME280;56688;50.234;19.292;2023-08-12T00:44:36;99108.85;;;12.89;80.08
69127;BME280;56688;50.234;19.292;2023-08-12T00:47:03;99106.48;;;12.88;79.91
69127;BME280;56688;50.234;19.292;2023-08-12T00:49:31;99107.38;;;12.84;79.35
69127;BME280;56688;50.234;19.292;2023-08-12T00:51:59;99104.81;;;12.77;79.45
69127;BME280;56688;50.234;19.292;2023-08-12T00:54:27;99105.60;;;12.70;79.75
69127;BME280;56688;50.234;19.292;2023-08-12T00:56:54;99105.35;;;12.67;79.78
69127;BME280;56688;50.234;19.292;2023-08-12T00:59:22;99098.66;;;12.63;79.74
69127;BME280;56688;50.234;19.292;2023-08-12T01:01:49;99098.59;;;12.62;79.70
69127;BME280;56688;50.234;19.292;2023-08-12T01:04:16;99094.80;;;12.61;79.87
69127;BME280;56688;50.234;19.292;2023-08-12T01:06:43;99095.32;;;12.60;80.02
69127;BME280;56688;50.234;19.292;2023-08-12T01:09:10;99098.78;;;12.59;79.91
69127;BME280;56688;50.234;19.292;2023-08-12T01:17:04;99106.89;;;12.42;79.73
69127;BME280;56688;50.234;19.292;2023-08-12T01:19:37;99106.95;;;12.39;79.72
69127;BME280;56688;50.234;19.292;2023-08-12T01:22:09;99108.03;;;12.36;79.70
69127;BME280;56688;50.234;19.292;2023-08-12T01:24:38;99111.39;;;12.32;79.85
69127;BME280;56688;50.234;19.292;2023-08-12T01:27:06;99117.77;;;12.28;79.82
69127;BME280;56688;50.234;19.292;2023-08-12T01:29:37;99115.34;;;12.23;79.77
69127;BME280;56688;50.234;19.292;2023-08-12T01:32:11;99118.78;;;12.16;79.75
69127;BME280;56688;50.234;19.292;2023-08-12T01:34:44;99117.94;;;12.11;79.81
69127;BME280;56688;50.234;19.292;2023-08-12T01:37:18;99118.66;;;12.08;79.92
69127;BME280;56688;50.234;19.292;2023-08-12T01:39:48;99118.59;;;12.06;79.76
69127;BME280;56688;50.234;19.292;2023-08-12T01:42:18;99116.80;;;12.03;80.09
69127;BME280;56688;50.234;19.292;2023-08-12T01:44:46;99115.86;;;12.01;80.07
69127;BME280;56688;50.234;19.292;2023-08-12T01:47:14;99119.11;;;11.97;79.97
69127;BME280;56688;50.234;19.292;2023-08-12T01:49:40;99117.49;;;11.91;79.93
69127;BME280;56688;50.234;19.292;2023-08-12T01:52:07;99113.94;;;11.85;80.02
69127;BME280;56688;50.234;19.292;2023-08-12T01:54:34;99117.17;;;11.80;80.07
69127;BME280;56688;50.234;19.292;2023-08-12T01:57:03;99117.30;;;11.79;80.45
69127;BME280;56688;50.234;19.292;2023-08-12T01:59:32;99119.36;;;11.80;80.38
69127;BME280;56688;50.234;19.292;2023-08-12T02:01:59;99120.44;;;11.80;80.55
69127;BME280;56688;50.234;19.292;2023-08-12T02:04:26;99120.17;;;11.79;80.30
69127;BME280;56688;50.234;19.292;2023-08-12T02:06:54;99122.37;;;11.76;79.91
69127;BME280;56688;50.234;19.292;2023-08-12T02:09:22;99121.96;;;11.69;80.04
69127;BME280;56688;50.234;19.292;2023-08-12T02:11:50;99124.58;;;11.65;79.95
69127;BME280;56688;50.234;19.292;2023-08-12T02:14:16;99126.11;;;11.61;79.58
69127;BME280;56688;50.234;19.292;2023-08-12T02:16:43;99123.94;;;11.59;80.09
69127;BME280;56688;50.234;19.292;2023-08-12T02:19:10;99126.35;;;11.57;79.99
69127;BME280;56688;50.234;19.292;2023-08-12T02:21:37;99128.53;;;11.52;80.09
69127;BME280;56688;50.234;19.292;2023-08-12T02:24:04;99132.23;;;11.49;80.07
69127;BME280;56688;50.234;19.292;2023-08-12T02:26:31;99132.44;;;11.44;80.14
69127;BME280;56688;50.234;19.292;2023-08-12T02:28:58;99130.41;;;11.40;80.01
69127;BME280;56688;50.234;19.292;2023-08-12T02:31:25;99127.22;;;11.35;80.32
69127;BME280;56688;50.234;19.292;2023-08-12T02:33:53;99126.60;;;11.32;80.93
69127;BME280;56688;50.234;19.292;2023-08-12T02:36:20;99125.98;;;11.32;81.62
69127;BME280;56688;50.234;19.292;2023-08-12T02:38:46;99129.08;;;11.32;81.89
69127;BME280;56688;50.234;19.292;2023-08-12T02:41:13;99133.81;;;11.32;82.77
69127;BME280;56688;50.234;19.292;2023-08-12T02:43:40;99137.70;;;11.33;83.12
69127;BME280;56688;50.234;19.292;2023-08-12T02:46:07;99136.64;;;11.31;83.67
69127;BME280;56688;50.234;19.292;2023-08-12T02:48:35;99139.95;;;11.30;83.48
69127;BME280;56688;50.234;19.292;2023-08-12T02:51:02;99136.05;;;11.30;83.01
69127;BME280;56688;50.234;19.292;2023-08-12T02:53:29;99133.84;;;11.31;82.92
69127;BME280;56688;50.234;19.292;2023-08-12T02:55:56;99133.36;;;11.32;82.53
69127;BME280;56688;50.234;19.292;2023-08-12T02:58:23;99135.29;;;11.32;82.20
69127;BME280;56688;50.234;19.292;2023-08-12T03:00:50;99141.05;;;11.32;81.98
69127;BME280;56688;50.234;19.292;2023-08-12T03:03:17;99138.50;;;11.29;81.53
69127;BME280;56688;50.234;19.292;2023-08-12T03:05:47;99137.73;;;11.23;81.37
69127;BME280;56688;50.234;19.292;2023-08-12T03:08:14;99136.11;;;11.20;81.82
69127;BME280;56688;50.234;19.292;2023-08-12T03:10:42;99134.31;;;11.21;82.15
69127;BME280;56688;50.234;19.292;2023-08-12T03:13:10;99132.65;;;11.23;82.35
69127;BME280;56688;50.234;19.292;2023-08-12T03:15:39;99129.41;;;11.26;82.66
69127;BME280;56688;50.234;19.292;2023-08-12T03:18:08;99128.94;;;11.28;82.42
69127;BME280;56688;50.234;19.292;2023-08-12T03:20:36;99131.74;;;11.29;81.94
69127;BME280;56688;50.234;19.292;2023-08-12T03:23:04;99128.58;;;11.27;81.82
69127;BME280;56688;50.234;19.292;2023-08-12T03:25:31;99128.00;;;11.23;81.76
69127;BME280;56688;50.234;19.292;2023-08-12T03:27:58;99129.73;;;11.20;81.14
69127;BME280;56688;50.234;19.292;2023-08-12T03:30:26;99127.43;;;11.17;81.07
69127;BME280;56688;50.234;19.292;2023-08-12T03:32:53;99128.89;;;11.15;80.99
69127;BME280;56688;50.234;19.292;2023-08-12T03:35:21;99123.90;;;11.15;81.22
69127;BME280;56688;50.234;19.292;2023-08-12T03:37:48;99120.77;;;11.14;81.39
69127;BME280;56688;50.234;19.292;2023-08-12T03:40:15;99125.20;;;11.13;81.31
69127;BME280;56688;50.234;19.292;2023-08-12T03:42:43;99121.30;;;11.08;81.15
69127;BME280;56688;50.234;19.292;2023-08-12T03:45:10;99123.57;;;11.05;81.11
69127;BME280;56688;50.234;19.292;2023-08-12T03:47:37;99124.94;;;11.06;81.68
69127;BME280;56688;50.234;19.292;2023-08-12T03:50:05;99121.48;;;11.08;82.01
69127;BME280;56688;50.234;19.292;2023-08-12T03:52:33;99124.26;;;11.13;82.32
69127;BME280;56688;50.234;19.292;2023-08-12T03:55:00;99126.05;;;11.18;82.37
69127;BME280;56688;50.234;19.292;2023-08-12T03:57:27;99123.70;;;11.21;82.09
69127;BME280;56688;50.234;19.292;2023-08-12T03:59:54;99128.24;;;11.25;82.23
69127;BME280;56688;50.234;19.292;2023-08-12T04:02:22;99129.00;;;11.26;81.95
69127;BME280;56688;50.234;19.292;2023-08-12T04:04:49;99130.84;;;11.27;81.90
69127;BME280;56688;50.234;19.292;2023-08-12T04:07:16;99131.52;;;11.30;81.88
69127;BME280;56688;50.234;19.292;2023-08-12T04:09:43;99135.51;;;11.36;82.20
69127;BME280;56688;50.234;19.292;2023-08-12T04:12:10;99132.21;;;11.43;82.79
69127;BME280;56688;50.234;19.292;2023-08-12T04:14:37;99130.25;;;11.51;82.69
69127;BME280;56688;50.234;19.292;2023-08-12T04:17:04;99129.42;;;11.58;82.94
69127;BME280;56688;50.234;19.292;2023-08-12T04:19:31;99133.77;;;11.64;83.16
69127;BME280;56688;50.234;19.292;2023-08-12T04:21:58;99133.41;;;11.72;82.89
69127;BME280;56688;50.234;19.292;2023-08-12T04:24:25;99130.84;;;11.79;82.73
69127;BME280;56688;50.234;19.292;2023-08-12T04:26:52;99134.91;;;11.90;82.77
69127;BME280;56688;50.234;19.292;2023-08-12T04:29:18;99135.82;;;12.01;82.88
69127;BME280;56688;50.234;19.292;2023-08-12T04:31:46;99133.70;;;12.11;82.85
69127;BME280;56688;50.234;19.292;2023-08-12T04:34:13;99132.42;;;12.21;82.57
69127;BME280;56688;50.234;19.292;2023-08-12T04:36:40;99134.27;;;12.30;82.98
69127;BME280;56688;50.234;19.292;2023-08-12T04:39:10;99133.41;;;12.39;83.52
69127;BME280;56688;50.234;19.292;2023-08-12T04:41:37;99132.66;;;12.49;83.57
69127;BME280;56688;50.234;19.292;2023-08-12T04:44:05;99137.02;;;12.61;83.69
69127;BME280;56688;50.234;19.292;2023-08-12T04:46:32;99140.43;;;12.72;83.57
69127;BME280;56688;50.234;19.292;2023-08-12T04:48:59;99136.74;;;12.86;83.86
69127;BME280;56688;50.234;19.292;2023-08-12T04:51:26;99138.30;;;13.03;83.62
69127;BME280;56688;50.234;19.292;2023-08-12T04:53:53;99141.70;;;13.20;83.67
69127;BME280;56688;50.234;19.292;2023-08-12T04:56:20;99133.84;;;13.37;83.43
69127;BME280;56688;50.234;19.292;2023-08-12T04:58:47;99128.56;;;13.55;83.53
69127;BME280;56688;50.234;19.292;2023-08-12T05:01:15;99127.43;;;13.70;83.45
69127;BME280;56688;50.234;19.292;2023-08-12T05:03:42;99127.27;;;13.84;83.29
69127;BME280;56688;50.234;19.292;2023-08-12T05:06:09;99132.75;;;14.04;82.92
69127;BME280;56688;50.234;19.292;2023-08-12T05:08:36;99132.99;;;14.25;83.22
69127;BME280;56688;50.234;19.292;2023-08-12T05:11:03;99136.52;;;14.50;82.86
69127;BME280;56688;50.234;19.292;2023-08-12T05:13:30;99136.11;;;14.73;82.20
69127;BME280;56688;50.234;19.292;2023-08-12T05:15:57;99135.59;;;14.92;81.66
69127;BME280;56688;50.234;19.292;2023-08-12T05:18:24;99132.51;;;15.10;81.26
69127;BME280;56688;50.234;19.292;2023-08-12T05:20:52;99132.27;;;15.25;80.88
69127;BME280;56688;50.234;19.292;2023-08-12T05:23:21;99132.23;;;15.43;80.76
69127;BME280;56688;50.234;19.292;2023-08-12T05:25:48;99127.71;;;15.64;80.72
69127;BME280;56688;50.234;19.292;2023-08-12T05:28:15;99129.61;;;15.87;81.00
69127;BME280;56688;50.234;19.292;2023-08-12T05:30:42;99134.43;;;16.11;80.85
69127;BME280;56688;50.234;19.292;2023-08-12T05:33:09;99137.72;;;16.34;80.62
69127;BME280;56688;50.234;19.292;2023-08-12T05:35:36;99134.18;;;16.57;80.39
69127;BME280;56688;50.234;19.292;2023-08-12T05:38:03;99133.45;;;16.77;79.83
69127;BME280;56688;50.234;19.292;2023-08-12T05:40:30;99137.48;;;16.96;79.12
69127;BME280;56688;50.234;19.292;2023-08-12T05:42:56;99135.62;;;17.15;78.56
69127;BME280;56688;50.234;19.292;2023-08-12T05:45:23;99132.73;;;17.36;78.09
69127;BME280;56688;50.234;19.292;2023-08-12T05:47:50;99133.14;;;17.57;77.52
69127;BME280;56688;50.234;19.292;2023-08-12T05:50:17;99129.31;;;17.78;77.51
69127;BME280;56688;50.234;19.292;2023-08-12T05:52:44;99127.66;;;17.99;76.83
69127;BME280;56688;50.234;19.292;2023-08-12T05:55:11;99126.97;;;18.21;76.38
69127;BME280;56688;50.234;19.292;2023-08-12T05:57:38;99126.15;;;18.41;75.82
69127;BME280;56688;50.234;19.292;2023-08-12T06:00:06;99126.18;;;18.62;75.24
69127;BME280;56688;50.234;19.292;2023-08-12T06:02:40;99123.14;;;18.86;74.53
69127;BME280;56688;50.234;19.292;2023-08-12T06:05:08;99124.60;;;19.10;73.71
69127;BME280;56688;50.234;19.292;2023-08-12T06:07:35;99124.50;;;19.32;72.44
69127;BME280;56688;50.234;19.292;2023-08-12T06:10:02;99122.80;;;19.61;72.47
69127;BME280;56688;50.234;19.292;2023-08-12T06:12:29;99120.99;;;19.88;71.72
69127;BME280;56688;50.234;19.292;2023-08-12T06:14:56;99120.15;;;20.09;70.35
69127;BME280;56688;50.234;19.292;2023-08-12T06:17:23;99121.88;;;20.24;69.48
69127;BME280;56688;50.234;19.292;2023-08-12T06:19:49;99123.66;;;20.47;69.70
69127;BME280;56688;50.234;19.292;2023-08-12T06:22:16;99122.91;;;20.69;68.51
69127;BME280;56688;50.234;19.292;2023-08-12T06:24:43;99126.35;;;20.85;68.21
69127;BME280;56688;50.234;19.292;2023-08-12T06:27:10;99129.48;;;21.00;67.35
69127;BME280;56688;50.234;19.292;2023-08-12T06:29:37;99129.60;;;21.14;67.62
69127;BME280;56688;50.234;19.292;2023-08-12T06:32:04;99123.74;;;21.33;65.92
69127;BME280;56688;50.234;19.292;2023-08-12T06:34:31;99125.20;;;21.56;66.07
69127;BME280;56688;50.234;19.292;2023-08-12T06:36:58;99122.25;;;21.80;66.54
69127;BME280;56688;50.234;19.292;2023-08-12T06:39:25;99114.91;;;22.05;65.29
69127;BME280;56688;50.234;19.292;2023-08-12T06:41:51;99116.13;;;22.27;64.21
69127;BME280;56688;50.234;19.292;2023-08-12T06:44:19;99116.70;;;22.44;63.36
69127;BME280;56688;50.234;19.292;2023-08-12T06:46:45;99120.09;;;22.60;63.11
69127;BME280;56688;50.234;19.292;2023-08-12T06:49:12;99113.71;;;22.71;60.55
69127;BME280;56688;50.234;19.292;2023-08-12T06:51:39;99111.31;;;22.76;59.48
69127;BME280;56688;50.234;19.292;2023-08-12T06:54:06;99113.16;;;22.88;58.34
69127;BME280;56688;50.234;19.292;2023-08-12T06:56:33;99110.59;;;22.98;56.71
69127;BME280;56688;50.234;19.292;2023-08-12T06:59:00;99108.70;;;23.09;55.24
69127;BME280;56688;50.234;19.292;2023-08-12T07:01:27;99112.73;;;23.23;56.20
69127;BME280;56688;50.234;19.292;2023-08-12T07:03:54;99104.40;;;23.39;55.96
69127;BME280;56688;50.234;19.292;2023-08-12T07:06:21;99104.93;;;23.54;54.28
69127;BME280;56688;50.234;19.292;2023-08-12T07:08:48;99105.17;;;23.72;54.48
69127;BME280;56688;50.234;19.292;2023-08-12T07:11:15;99100.36;;;23.95;53.81
69127;BME280;56688;50.234;19.292;2023-08-12T07:13:42;99100.69;;;24.09;53.09
69127;BME280;56688;50.234;19.292;2023-08-12T07:16:13;99102.95;;;24.21;51.12
69127;BME280;56688;50.234;19.292;2023-08-12T07:18:40;99105.71;;;24.31;50.86
69127;BME280;56688;50.234;19.292;2023-08-12T07:21:07;99106.11;;;24.50;50.90
69127;BME280;56688;50.234;19.292;2023-08-12T07:23:34;99107.51;;;24.73;50.90
69127;BME280;56688;50.234;19.292;2023-08-12T07:26:01;99106.88;;;24.81;48.77
69127;BME280;56688;50.234;19.292;2023-08-12T07:28:27;99107.10;;;24.78;48.74
69127;BME280;56688;50.234;19.292;2023-08-12T07:30:54;99104.11;;;24.84;50.36
69127;BME280;56688;50.234;19.292;2023-08-12T07:33:21;99103.66;;;25.05;50.44
69127;BME280;56688;50.234;19.292;2023-08-12T07:35:48;99104.77;;;25.21;49.10
69127;BME280;56688;50.234;19.292;2023-08-12T07:38:15;99100.69;;;25.30;48.00
69127;BME280;56688;50.234;19.292;2023-08-12T07:40:42;99097.88;;;25.40;46.52
69127;BME280;56688;50.234;19.292;2023-08-12T07:43:09;99096.02;;;25.50;44.90
69127;BME280;56688;50.234;19.292;2023-08-12T07:45:36;99091.44;;;25.59;44.83
69127;BME280;56688;50.234;19.292;2023-08-12T07:48:03;99086.70;;;25.72;44.93
69127;BME280;56688;50.234;19.292;2023-08-12T07:50:30;99079.22;;;25.95;45.09
69127;BME280;56688;50.234;19.292;2023-08-12T07:52:57;99077.45;;;26.19;44.72
69127;BME280;56688;50.234;19.292;2023-08-12T07:55:24;99075.45;;;26.41;45.09
69127;BME280;56688;50.234;19.292;2023-08-12T07:57:53;99074.54;;;26.70;44.35
69127;BME280;56688;50.234;19.292;2023-08-12T08:00:20;99072.98;;;27.03;43.93
69127;BME280;56688;50.234;19.292;2023-08-12T08:02:47;99075.48;;;27.31;41.17
69127;BME280;56688;50.234;19.292;2023-08-12T08:05:14;99070.91;;;27.58;40.44
69127;BME280;56688;50.234;19.292;2023-08-12T08:07:41;99064.88;;;28.00;40.83
69127;BME280;56688;50.234;19.292;2023-08-12T08:10:09;99064.64;;;28.47;41.00
69127;BME280;56688;50.234;19.292;2023-08-12T08:12:36;99067.23;;;28.99;40.03
69127;BME280;56688;50.234;19.292;2023-08-12T08:15:03;99068.20;;;29.52;39.03
69127;BME280;56688;50.234;19.292;2023-08-12T08:17:30;99063.42;;;29.99;38.51
69127;BME280;56688;50.234;19.292;2023-08-12T08:19:57;99061.30;;;30.49;37.53
69127;BME280;56688;50.234;19.292;2023-08-12T08:22:24;99061.06;;;30.95;36.57
69127;BME280;56688;50.234;19.292;2023-08-12T08:24:51;99061.64;;;31.45;35.70
69127;BME280;56688;50.234;19.292;2023-08-12T08:27:18;99061.59;;;31.82;34.89
69127;BME280;56688;50.234;19.292;2023-08-12T08:29:44;99065.09;;;32.11;34.20
69127;BME280;56688;50.234;19.292;2023-08-12T08:32:11;99066.12;;;32.54;34.12
69127;BME280;56688;50.234;19.292;2023-08-12T08:34:39;99070.16;;;33.08;33.12
69127;BME280;56688;50.234;19.292;2023-08-12T08:37:06;99069.16;;;33.52;31.36
69127;BME280;56688;50.234;19.292;2023-08-12T08:39:32;99063.38;;;33.73;28.23
69127;BME280;56688;50.234;19.292;2023-08-12T08:42:00;99062.23;;;33.81;26.85
69127;BME280;56688;50.234;19.292;2023-08-12T08:44:29;99060.39;;;33.88;27.18
69127;BME280;56688;50.234;19.292;2023-08-12T08:46:58;99057.46;;;34.14;28.36
69127;BME280;56688;50.234;19.292;2023-08-12T08:49:26;99054.79;;;34.54;27.69
69127;BME280;56688;50.234;19.292;2023-08-12T08:51:55;99047.62;;;34.80;27.97
69127;BME280;56688;50.234;19.292;2023-08-12T08:54:23;99050.64;;;35.12;27.13
69127;BME280;56688;50.234;19.292;2023-08-12T08:56:50;99048.48;;;35.11;26.63
69127;BME280;56688;50.234;19.292;2023-08-12T08:59:34;99052.70;;;34.95;26.62
69127;BME280;56688;50.234;19.292;2023-08-12T09:02:01;99047.11;;;34.97;26.74
69127;BME280;56688;50.234;19.292;2023-08-12T09:04:29;99050.23;;;35.05;26.77
69127;BME280;56688;50.234;19.292;2023-08-12T09:06:58;99048.64;;;34.90;26.93
69127;BME280;56688;50.234;19.292;2023-08-12T09:09:27;99047.96;;;34.90;27.21
69127;BME280;56688;50.234;19.292;2023-08-12T09:11:54;99045.46;;;34.74;27.58
69127;BME280;56688;50.234;19.292;2023-08-12T09:14:22;99047.55;;;34.53;27.41
69127;BME280;56688;50.234;19.292;2023-08-12T09:16:50;99045.95;;;34.47;28.30
69127;BME280;56688;50.234;19.292;2023-08-12T09:19:17;99041.88;;;34.33;27.72
69127;BME280;56688;50.234;19.292;2023-08-12T09:21:52;99035.27;;;34.16;28.49
69127;BME280;56688;50.234;19.292;2023-08-12T09:24:24;99030.40;;;34.06;29.18
69127;BME280;56688;50.234;19.292;2023-08-12T09:26:52;99030.37;;;33.94;28.82
69127;BME280;56688;50.234;19.292;2023-08-12T09:29:23;99023.20;;;33.91;28.33
69127;BME280;56688;50.234;19.292;2023-08-12T09:31:51;99019.96;;;33.87;28.16
69127;BME280;56688;50.234;19.292;2023-08-12T09:34:19;99018.54;;;33.85;28.39
69127;BME280;56688;50.234;19.292;2023-08-12T09:36:46;99014.83;;;34.10;29.12
69127;BME280;56688;50.234;19.292;2023-08-12T09:39:13;99009.03;;;34.34;28.84
69127;BME280;56688;50.234;19.292;2023-08-12T09:41:40;99011.46;;;34.21;28.39
69127;BME280;56688;50.234;19.292;2023-08-12T09:44:08;99012.23;;;33.93;28.42
69127;BME280;56688;50.234;19.292;2023-08-12T09:46:35;99006.82;;;33.63;29.29
69127;BME280;56688;50.234;19.292;2023-08-12T09:49:02;99007.50;;;33.36;28.52
69127;BME280;56688;50.234;19.292;2023-08-12T09:51:35;99006.27;;;33.03;28.93
69127;BME280;56688;50.234;19.292;2023-08-12T09:54:02;99003.06;;;32.72;29.06
69127;BME280;56688;50.234;19.292;2023-08-12T09:56:33;99002.04;;;32.56;30.46
69127;BME280;56688;50.234;19.292;2023-08-12T09:59:05;98993.39;;;32.58;30.25
69127;BME280;56688;50.234;19.292;2023-08-12T10:01:33;98993.70;;;32.42;30.79
69127;BME280;56688;50.234;19.292;2023-08-12T10:04:00;98991.05;;;32.32;31.35
69127;BME280;56688;50.234;19.292;2023-08-12T10:06:28;98987.29;;;32.22;31.20
69127;BME280;56688;50.234;19.292;2023-08-12T10:08:56;98988.29;;;32.07;31.49
69127;BME280;56688;50.234;19.292;2023-08-12T10:11:24;98990.77;;;31.65;31.94
69127;BME280;56688;50.234;19.292;2023-08-12T10:13:51;98989.29;;;31.28;32.96
69127;BME280;56688;50.234;19.292;2023-08-12T10:16:19;98984.20;;;31.06;32.82
69127;BME280;56688;50.234;19.292;2023-08-12T10:18:48;98978.38;;;30.93;34.04
69127;BME280;56688;50.234;19.292;2023-08-12T10:21:15;98975.66;;;30.82;34.24
69127;BME280;56688;50.234;19.292;2023-08-12T10:23:42;98971.21;;;30.67;35.04
69127;BME280;56688;50.234;19.292;2023-08-12T10:26:14;98972.34;;;30.47;34.52
69127;BME280;56688;50.234;19.292;2023-08-12T10:28:42;98973.67;;;30.28;33.63
69127;BME280;56688;50.234;19.292;2023-08-12T10:31:11;98968.40;;;30.04;35.00
69127;BME280;56688;50.234;19.292;2023-08-12T10:33:40;98970.05;;;29.82;35.96
69127;BME280;56688;50.234;19.292;2023-08-12T10:36:08;98967.49;;;29.68;37.32
69127;BME280;56688;50.234;19.292;2023-08-12T10:38:36;98964.98;;;29.70;37.11
69127;BME280;56688;50.234;19.292;2023-08-12T10:43:51;98970.75;;;29.56;36.73
69127;BME280;56688;50.234;19.292;2023-08-12T10:46:22;98965.92;;;29.47;35.68
69127;BME280;56688;50.234;19.292;2023-08-12T10:48:59;98969.66;;;29.37;36.40
69127;BME280;56688;50.234;19.292;2023-08-12T10:54:27;98965.85;;;29.20;36.50
69127;BME280;56688;50.234;19.292;2023-08-12T10:57:05;98968.15;;;29.10;35.97
69127;BME280;56688;50.234;19.292;2023-08-12T10:59:50;98961.91;;;29.04;36.41
69127;BME280;56688;50.234;19.292;2023-08-12T11:02:22;98963.41;;;29.11;36.55
69127;BME280;56688;50.234;19.292;2023-08-12T11:04:52;98964.05;;;29.01;36.68
69127;BME280;56688;50.234;19.292;2023-08-12T11:07:28;98958.76;;;28.89;36.45
69127;BME280;56688;50.234;19.292;2023-08-12T11:09:59;98954.85;;;28.90;37.66
69127;BME280;56688;50.234;19.292;2023-08-12T11:12:34;98954.14;;;29.04;37.61
69127;BME280;56688;50.234;19.292;2023-08-12T11:15:03;98950.63;;;29.23;36.77
69127;BME280;56688;50.234;19.292;2023-08-12T11:17:33;98948.98;;;29.35;35.93
69127;BME280;56688;50.234;19.292;2023-08-12T11:20:02;98942.85;;;29.33;35.63
69127;BME280;56688;50.234;19.292;2023-08-12T11:22:33;98938.02;;;29.42;37.18
69127;BME280;56688;50.234;19.292;2023-08-12T11:25:06;98938.43;;;29.44;35.38
69127;BME280;56688;50.234;19.292;2023-08-12T11:27:43;98941.85;;;29.38;36.21
69127;BME280;56688;50.234;19.292;2023-08-12T11:30:14;98942.16;;;29.41;36.67
69127;BME280;56688;50.234;19.292;2023-08-12T11:32:43;98929.47;;;29.60;37.31
69127;BME280;56688;50.234;19.292;2023-08-12T11:35:12;98929.58;;;29.93;35.13
69127;BME280;56688;50.234;19.292;2023-08-12T11:37:41;98923.82;;;30.21;34.98
69127;BME280;56688;50.234;19.292;2023-08-12T11:40:09;98924.18;;;30.43;34.54
69127;BME280;56688;50.234;19.292;2023-08-12T11:42:38;98924.55;;;30.49;34.95
69127;BME280;56688;50.234;19.292;2023-08-12T11:45:06;98924.30;;;30.63;34.13
69127;BME280;56688;50.234;19.292;2023-08-12T11:47:35;98918.58;;;30.76;34.24
69127;BME280;56688;50.234;19.292;2023-08-12T11:50:04;98907.23;;;31.10;34.14
69127;BME280;56688;50.234;19.292;2023-08-12T11:52:31;98905.59;;;31.54;33.43
69127;BME280;56688;50.234;19.292;2023-08-12T11:54:59;98902.20;;;31.80;33.39
69127;BME280;56688;50.234;19.292;2023-08-12T11:57:26;98901.43;;;31.88;32.83
69127;BME280;56688;50.234;19.292;2023-08-12T12:00:01;98899.79;;;32.03;33.25
69127;BME280;56688;50.234;19.292;2023-08-12T12:02:41;98891.70;;;32.48;33.35
69127;BME280;56688;50.234;19.292;2023-08-12T12:05:10;98893.23;;;33.10;31.39
69127;BME280;56688;50.234;19.292;2023-08-12T12:07:38;98883.30;;;33.74;31.08
69127;BME280;56688;50.234;19.292;2023-08-12T12:10:05;98883.38;;;34.20;29.67
69127;BME280;56688;50.234;19.292;2023-08-12T12:12:34;98881.09;;;34.44;29.60
69127;BME280;56688;50.234;19.292;2023-08-12T12:15:03;98879.19;;;34.68;28.83
69127;BME280;56688;50.234;19.292;2023-08-12T12:17:30;98880.58;;;34.88;28.35
69127;BME280;56688;50.234;19.292;2023-08-12T12:20:00;98876.72;;;34.97;28.18
69127;BME280;56688;50.234;19.292;2023-08-12T12:22:29;98875.96;;;34.94;28.49
69127;BME280;56688;50.234;19.292;2023-08-12T12:24:59;98874.65;;;34.85;28.32
69127;BME280;56688;50.234;19.292;2023-08-12T12:27:27;98870.58;;;34.83;28.07
69127;BME280;56688;50.234;19.292;2023-08-12T12:29:54;98864.83;;;35.10;27.59
69127;BME280;56688;50.234;19.292;2023-08-12T12:32:21;98856.77;;;35.60;27.71
69127;BME280;56688;50.234;19.292;2023-08-12T12:34:48;98853.53;;;36.06;28.21
69127;BME280;56688;50.234;19.292;2023-08-12T12:37:15;98853.23;;;36.42;26.91
69127;BME280;56688;50.234;19.292;2023-08-12T12:39:42;98855.73;;;36.56;26.32
69127;BME280;56688;50.234;19.292;2023-08-12T12:42:10;98852.30;;;36.64;25.85
69127;BME280;56688;50.234;19.292;2023-08-12T12:44:37;98843.75;;;36.89;26.89
69127;BME280;56688;50.234;19.292;2023-08-12T12:47:05;98840.79;;;37.40;26.62
69127;BME280;56688;50.234;19.292;2023-08-12T12:49:32;98838.23;;;37.76;25.54
69127;BME280;56688;50.234;19.292;2023-08-12T12:51:59;98837.84;;;37.79;25.17
69127;BME280;56688;50.234;19.292;2023-08-12T12:54:26;98834.23;;;37.73;25.10
69127;BME280;56688;50.234;19.292;2023-08-12T12:56:53;98831.38;;;37.81;25.33
69127;BME280;56688;50.234;19.292;2023-08-12T12:59:20;98829.64;;;37.83;24.38
69127;BME280;56688;50.234;19.292;2023-08-12T13:01:47;98826.02;;;37.81;24.58
69127;BME280;56688;50.234;19.292;2023-08-12T13:04:13;98826.69;;;37.93;24.23